sensor_id;sensor_type;location;lat;lon;timestamp;P1;durP1;ratioP1;P2;durP2;ratioP2
73599;SDS011;61877;48.246;9.220;2023-06-22T00:01:15;12.45;;;5.80;;
73599;SDS011;61877;48.246;9.220;2023-06-22T00:03:40;13.83;;;6.30;;
73599;SDS011;61877;48.246;9.220;2023-06-22T00:06:07;13.75;;;6.32;;
73599;SDS011;61877;48.246;9.220;2023-06-22T00:08:33;11.50;;;6.20;;
73599;SDS011;61877;48.246;9.220;2023-06-22T00:11:02;15.23;;;6.33;;
73599;SDS011;61877;48.246;9.220;2023-06-22T00:13:28;13.32;;;6.57;;
73599;SDS011;61877;48.246;9.220;2023-06-22T00:15:54;14.98;;;6.43;;
73599;SDS011;61877;48.246;9.220;2023-06-22T00:18:23;11.75;;;5.70;;
73599;SDS011;61877;48.246;9.220;2023-06-22T00:20:49;13.67;;;6.17;;
73599;SDS011;61877;48.246;9.220;2023-06-22T00:23:14;13.57;;;5.97;;
73599;SDS011;61877;48.246;9.220;2023-06-22T00:25:40;14.27;;;6.10;;
73599;SDS011;61877;48.246;9.220;2023-06-22T00:28:07;13.60;;;5.78;;
73599;SDS011;61877;48.246;9.220;2023-06-22T00:30:33;14.00;;;5.77;;
73599;SDS011;61877;48.246;9.220;2023-06-22T00:33:00;13.55;;;5.20;;
73599;SDS011;61877;48.246;9.220;2023-06-22T00:35:26;20.80;;;6.00;;
73599;SDS011;61877;48.246;9.220;2023-06-22T00:37:52;13.15;;;5.60;;
73599;SDS011;61877;48.246;9.220;2023-06-22T00:40:18;12.37;;;5.47;;
73599;SDS011;61877;48.246;9.220;2023-06-22T00:42:43;13.73;;;5.70;;
73599;SDS011;61877;48.246;9.220;2023-06-22T00:51:02;12.07;;;5.30;;
73599;SDS011;61877;48.246;9.220;2023-06-22T00:53:28;13.25;;;6.18;;
73599;SDS011;61877;48.246;9.220;2023-06-22T00:55:54;10.77;;;5.53;;
73599;SDS011;61877;48.246;9.220;2023-06-22T00:58:21;11.30;;;5.78;;
73599;SDS011;61877;48.246;9.220;2023-06-22T01:00:46;12.98;;;6.22;;
73599;SDS011;61877;48.246;9.220;2023-06-22T01:03:13;13.27;;;5.38;;
73599;SDS011;61877;48.246;9.220;2023-06-22T01:05:39;11.63;;;5.20;;
73599;SDS011;61877;48.246;9.220;2023-06-22T01:08:08;15.05;;;5.45;;
73599;SDS011;61877;48.246;9.220;2023-06-22T01:10:46;12.80;;;5.05;;
73599;SDS011;61877;48.246;9.220;2023-06-22T01:13:18;12.48;;;5.32;;
73599;SDS011;61877;48.246;9.220;2023-06-22T01:15:52;13.83;;;5.10;;
73599;SDS011;61877;48.246;9.220;2023-06-22T01:18:21;10.82;;;5.25;;
73599;SDS011;61877;48.246;9.220;2023-06-22T01:20:48;11.63;;;5.10;;
73599;SDS011;61877;48.246;9.220;2023-06-22T01:23:20;13.88;;;5.40;;
73599;SDS011;61877;48.246;9.220;2023-06-22T01:25:53;13.88;;;5.28;;
73599;SDS011;61877;48.246;9.220;2023-06-22T01:31:19;11.57;;;5.40;;
73599;SDS011;61877;48.246;9.220;2023-06-22T01:33:49;12.85;;;5.53;;
73599;SDS011;61877;48.246;9.220;2023-06-22T01:36:17;13.13;;;5.65;;
73599;SDS011;61877;48.246;9.220;2023-06-22T01:38:43;11.88;;;5.22;;
73599;SDS011;61877;48.246;9.220;2023-06-22T01:41:10;11.87;;;5.67;;
73599;SDS011;61877;48.246;9.220;2023-06-22T01:43:37;12.43;;;5.78;;
73599;SDS011;61877;48.246;9.220;2023-06-22T01:46:05;13.05;;;5.90;;
73599;SDS011;61877;48.246;9.220;2023-06-22T01:48:31;11.80;;;5.28;;
73599;SDS011;61877;48.246;9.220;2023-06-22T01:50:57;12.20;;;6.15;;
73599;SDS011;61877;48.246;9.220;2023-06-22T01:53:26;14.00;;;5.70;;
73599;SDS011;61877;48.246;9.220;2023-06-22T01:55:52;11.88;;;5.45;;
73599;SDS011;61877;48.246;9.220;2023-06-22T01:58:17;13.77;;;5.70;;
73599;SDS011;61877;48.246;9.220;2023-06-22T02:00:48;12.63;;;5.50;;
73599;SDS011;61877;48.246;9.220;2023-06-22T02:03:19;11.13;;;5.32;;
73599;SDS011;61877;48.246;9.220;2023-06-22T02:05:48;12.30;;;5.32;;
73599;SDS011;61877;48.246;9.220;2023-06-22T02:08:16;12.00;;;4.97;;
73599;SDS011;61877;48.246;9.220;2023-06-22T02:10:44;12.65;;;5.25;;
73599;SDS011;61877;48.246;9.220;2023-06-22T02:13:11;14.65;;;5.30;;
73599;SDS011;61877;48.246;9.220;2023-06-22T02:15:38;15.00;;;5.45;;
73599;SDS011;61877;48.246;9.220;2023-06-22T02:18:03;11.18;;;4.80;;
73599;SDS011;61877;48.246;9.220;2023-06-22T02:20:31;9.33;;;4.80;;
73599;SDS011;61877;48.246;9.220;2023-06-22T02:22:56;10.10;;;4.30;;
73599;SDS011;61877;48.246;9.220;2023-06-22T02:25:22;12.63;;;4.80;;
73599;SDS011;61877;48.246;9.220;2023-06-22T02:27:47;10.50;;;4.63;;
73599;SDS011;61877;48.246;9.220;2023-06-22T02:30:14;12.02;;;5.10;;
73599;SDS011;61877;48.246;9.220;2023-06-22T02:32:40;12.77;;;4.90;;
73599;SDS011;61877;48.246;9.220;2023-06-22T02:35:05;11.47;;;4.93;;
73599;SDS011;61877;48.246;9.220;2023-06-22T02:37:35;10.95;;;4.93;;
73599;SDS011;61877;48.246;9.220;2023-06-22T02:40:01;10.60;;;4.78;;
73599;SDS011;61877;48.246;9.220;2023-06-22T02:42:27;11.80;;;4.77;;
73599;SDS011;61877;48.246;9.220;2023-06-22T02:44:54;10.05;;;4.57;;
73599;SDS011;61877;48.246;9.220;2023-06-22T02:47:20;12.40;;;4.57;;
73599;SDS011;61877;48.246;9.220;2023-06-22T02:49:45;11.98;;;4.82;;
73599;SDS011;61877;48.246;9.220;2023-06-22T02:52:11;11.27;;;5.00;;
73599;SDS011;61877;48.246;9.220;2023-06-22T02:54:38;10.25;;;4.70;;
73599;SDS011;61877;48.246;9.220;2023-06-22T02:57:06;12.90;;;4.88;;
73599;SDS011;61877;48.246;9.220;2023-06-22T02:59:32;10.80;;;4.90;;
73599;SDS011;61877;48.246;9.220;2023-06-22T03:01:58;9.88;;;4.75;;
73599;SDS011;61877;48.246;9.220;2023-06-22T03:04:23;10.63;;;4.17;;
73599;SDS011;61877;48.246;9.220;2023-06-22T03:06:49;13.53;;;5.30;;
73599;SDS011;61877;48.246;9.220;2023-06-22T03:09:14;12.52;;;4.95;;
73599;SDS011;61877;48.246;9.220;2023-06-22T03:11:41;13.93;;;5.40;;
73599;SDS011;61877;48.246;9.220;2023-06-22T03:14:07;13.05;;;5.40;;
73599;SDS011;61877;48.246;9.220;2023-06-22T03:16:32;12.53;;;5.43;;
73599;SDS011;61877;48.246;9.220;2023-06-22T03:18:58;13.33;;;5.60;;
73599;SDS011;61877;48.246;9.220;2023-06-22T03:21:25;12.35;;;5.50;;
73599;SDS011;61877;48.246;9.220;2023-06-22T03:23:52;11.13;;;5.18;;
73599;SDS011;61877;48.246;9.220;2023-06-22T03:26:18;12.40;;;4.93;;
73599;SDS011;61877;48.246;9.220;2023-06-22T03:28:45;11.23;;;5.18;;
73599;SDS011;61877;48.246;9.220;2023-06-22T03:31:11;12.88;;;4.80;;
73599;SDS011;61877;48.246;9.220;2023-06-22T03:33:36;10.57;;;5.07;;
73599;SDS011;61877;48.246;9.220;2023-06-22T03:36:02;11.07;;;4.87;;
73599;SDS011;61877;48.246;9.220;2023-06-22T03:38:28;10.75;;;4.55;;
73599;SDS011;61877;48.246;9.220;2023-06-22T03:40:53;10.43;;;4.50;;
73599;SDS011;61877;48.246;9.220;2023-06-22T03:43:20;10.60;;;4.80;;
73599;SDS011;61877;48.246;9.220;2023-06-22T03:45:51;10.82;;;4.40;;
73599;SDS011;61877;48.246;9.220;2023-06-22T03:48:19;10.63;;;4.50;;
73599;SDS011;61877;48.246;9.220;2023-06-22T03:50:46;11.13;;;4.70;;
73599;SDS011;61877;48.246;9.220;2023-06-22T03:53:12;10.73;;;4.55;;
73599;SDS011;61877;48.246;9.220;2023-06-22T03:55:48;9.00;;;4.20;;
73599;SDS011;61877;48.246;9.220;2023-06-22T03:58:13;12.93;;;4.45;;
73599;SDS011;61877;48.246;9.220;2023-06-22T04:00:39;10.80;;;4.80;;
73599;SDS011;61877;48.246;9.220;2023-06-22T04:03:12;13.03;;;4.73;;
73599;SDS011;61877;48.246;9.220;2023-06-22T04:05:38;12.75;;;4.93;;
73599;SDS011;61877;48.246;9.220;2023-06-22T04:08:03;11.82;;;4.95;;
73599;SDS011;61877;48.246;9.220;2023-06-22T04:10:30;11.35;;;4.43;;
73599;SDS011;61877;48.246;9.220;2023-06-22T04:12:55;10.67;;;4.57;;
73599;SDS011;61877;48.246;9.220;2023-06-22T04:15:22;11.50;;;4.72;;
73599;SDS011;61877;48.246;9.220;2023-06-22T04:17:48;12.07;;;4.97;;
73599;SDS011;61877;48.246;9.220;2023-06-22T04:20:15;12.10;;;4.63;;
73599;SDS011;61877;48.246;9.220;2023-06-22T04:22:43;9.82;;;4.18;;
73599;SDS011;61877;48.246;9.220;2023-06-22T04:25:09;11.77;;;4.70;;
73599;SDS011;61877;48.246;9.220;2023-06-22T04:27:34;10.30;;;4.50;;
73599;SDS011;61877;48.246;9.220;2023-06-22T04:30:00;11.63;;;4.63;;
73599;SDS011;61877;48.246;9.220;2023-06-22T04:32:26;12.23;;;4.57;;
73599;SDS011;61877;48.246;9.220;2023-06-22T04:34:54;9.68;;;4.30;;
73599;SDS011;61877;48.246;9.220;2023-06-22T04:37:21;10.80;;;4.57;;
73599;SDS011;61877;48.246;9.220;2023-06-22T04:39:47;13.55;;;4.95;;
73599;SDS011;61877;48.246;9.220;2023-06-22T04:42:15;14.73;;;5.20;;
73599;SDS011;61877;48.246;9.220;2023-06-22T04:44:41;10.57;;;4.60;;
73599;SDS011;61877;48.246;9.220;2023-06-22T04:47:06;11.02;;;4.40;;
73599;SDS011;61877;48.246;9.220;2023-06-22T04:49:32;11.17;;;4.70;;
73599;SDS011;61877;48.246;9.220;2023-06-22T04:51:58;12.13;;;5.13;;
73599;SDS011;61877;48.246;9.220;2023-06-22T04:54:30;12.02;;;4.88;;
73599;SDS011;61877;48.246;9.220;2023-06-22T04:56:56;11.35;;;4.80;;
73599;SDS011;61877;48.246;9.220;2023-06-22T04:59:22;11.60;;;4.87;;
73599;SDS011;61877;48.246;9.220;2023-06-22T05:01:48;13.97;;;4.87;;
73599;SDS011;61877;48.246;9.220;2023-06-22T05:04:13;12.02;;;5.07;;
73599;SDS011;61877;48.246;9.220;2023-06-22T05:06:41;12.53;;;5.10;;
73599;SDS011;61877;48.246;9.220;2023-06-22T05:09:06;13.52;;;5.03;;
73599;SDS011;61877;48.246;9.220;2023-06-22T05:11:34;12.10;;;4.70;;
73599;SDS011;61877;48.246;9.220;2023-06-22T05:14:03;13.25;;;4.68;;
73599;SDS011;61877;48.246;9.220;2023-06-22T05:16:28;11.63;;;4.83;;
73599;SDS011;61877;48.246;9.220;2023-06-22T05:18:54;11.80;;;4.60;;
73599;SDS011;61877;48.246;9.220;2023-06-22T05:21:24;9.30;;;4.35;;
73599;SDS011;61877;48.246;9.220;2023-06-22T05:23:53;12.80;;;4.80;;
73599;SDS011;61877;48.246;9.220;2023-06-22T05:26:19;12.85;;;4.80;;
73599;SDS011;61877;48.246;9.220;2023-06-22T05:28:46;12.73;;;5.10;;
73599;SDS011;61877;48.246;9.220;2023-06-22T05:31:13;14.32;;;4.93;;
73599;SDS011;61877;48.246;9.220;2023-06-22T05:33:42;11.48;;;4.70;;
73599;SDS011;61877;48.246;9.220;2023-06-22T05:36:08;13.07;;;5.17;;
73599;SDS011;61877;48.246;9.220;2023-06-22T05:38:36;13.77;;;5.00;;
73599;SDS011;61877;48.246;9.220;2023-06-22T05:41:18;16.10;;;5.72;;
73599;SDS011;61877;48.246;9.220;2023-06-22T05:46:40;11.68;;;4.93;;
73599;SDS011;61877;48.246;9.220;2023-06-22T05:49:06;12.68;;;5.25;;
73599;SDS011;61877;48.246;9.220;2023-06-22T05:51:32;11.93;;;5.20;;
73599;SDS011;61877;48.246;9.220;2023-06-22T05:54:00;13.73;;;5.30;;
73599;SDS011;61877;48.246;9.220;2023-06-22T05:56:29;10.63;;;5.38;;
73599;SDS011;61877;48.246;9.220;2023-06-22T05:58:54;13.53;;;5.30;;
73599;SDS011;61877;48.246;9.220;2023-06-22T06:01:23;13.18;;;5.78;;
73599;SDS011;61877;48.246;9.220;2023-06-22T06:03:49;14.53;;;5.63;;
73599;SDS011;61877;48.246;9.220;2023-06-22T06:06:16;13.05;;;5.60;;
73599;SDS011;61877;48.246;9.220;2023-06-22T06:08:45;11.13;;;5.20;;
73599;SDS011;61877;48.246;9.220;2023-06-22T06:11:14;14.93;;;6.13;;
73599;SDS011;61877;48.246;9.220;2023-06-22T06:13:50;11.83;;;5.27;;
73599;SDS011;61877;48.246;9.220;2023-06-22T06:16:16;12.55;;;5.10;;
73599;SDS011;61877;48.246;9.220;2023-06-22T06:24:52;12.35;;;5.20;;
73599;SDS011;61877;48.246;9.220;2023-06-22T06:27:27;12.68;;;5.30;;
73599;SDS011;61877;48.246;9.220;2023-06-22T06:29:56;11.68;;;5.53;;
73599;SDS011;61877;48.246;9.220;2023-06-22T06:32:30;12.60;;;5.13;;
73599;SDS011;61877;48.246;9.220;2023-06-22T06:34:56;15.27;;;5.57;;
73599;SDS011;61877;48.246;9.220;2023-06-22T06:37:21;10.95;;;5.00;;
73599;SDS011;61877;48.246;9.220;2023-06-22T06:39:54;11.93;;;5.90;;
73599;SDS011;61877;48.246;9.220;2023-06-22T06:42:23;12.73;;;5.50;;
73599;SDS011;61877;48.246;9.220;2023-06-22T06:44:49;12.57;;;5.95;;
73599;SDS011;61877;48.246;9.220;2023-06-22T06:47:55;12.52;;;5.53;;
73599;SDS011;61877;48.246;9.220;2023-06-22T06:50:11;13.80;;;5.37;;
73599;SDS011;61877;48.246;9.220;2023-06-22T06:52:37;13.20;;;6.10;;
73599;SDS011;61877;48.246;9.220;2023-06-22T07:04:06;15.40;;;5.97;;
73599;SDS011;61877;48.246;9.220;2023-06-22T07:06:32;13.73;;;6.07;;
73599;SDS011;61877;48.246;9.220;2023-06-22T07:08:59;13.00;;;5.55;;
73599;SDS011;61877;48.246;9.220;2023-06-22T07:12:08;11.77;;;5.28;;
73599;SDS011;61877;48.246;9.220;2023-06-22T07:23:56;13.32;;;5.65;;
73599;SDS011;61877;48.246;9.220;2023-06-22T07:26:46;12.63;;;5.85;;
73599;SDS011;61877;48.246;9.220;2023-06-22T07:29:12;14.57;;;5.80;;
73599;SDS011;61877;48.246;9.220;2023-06-22T07:31:45;12.27;;;5.43;;
73599;SDS011;61877;48.246;9.220;2023-06-22T07:34:16;11.38;;;5.70;;
73599;SDS011;61877;48.246;9.220;2023-06-22T07:36:42;14.65;;;5.63;;
73599;SDS011;61877;48.246;9.220;2023-06-22T07:39:09;12.97;;;5.60;;
73599;SDS011;61877;48.246;9.220;2023-06-22T07:41:34;12.32;;;5.47;;
73599;SDS011;61877;48.246;9.220;2023-06-22T07:44:01;14.10;;;5.80;;
73599;SDS011;61877;48.246;9.220;2023-06-22T07:46:27;13.98;;;6.10;;
73599;SDS011;61877;48.246;9.220;2023-06-22T07:48:53;10.70;;;5.37;;
73599;SDS011;61877;48.246;9.220;2023-06-22T07:51:18;12.87;;;5.80;;
73599;SDS011;61877;48.246;9.220;2023-06-22T07:53:44;14.07;;;5.60;;
73599;SDS011;61877;48.246;9.220;2023-06-22T07:56:11;14.13;;;5.90;;
73599;SDS011;61877;48.246;9.220;2023-06-22T07:58:37;10.70;;;5.50;;
73599;SDS011;61877;48.246;9.220;2023-06-22T08:01:03;13.30;;;5.43;;
73599;SDS011;61877;48.246;9.220;2023-06-22T08:03:28;15.07;;;5.95;;
73599;SDS011;61877;48.246;9.220;2023-06-22T08:05:54;12.80;;;5.63;;
73599;SDS011;61877;48.246;9.220;2023-06-22T08:08:20;11.52;;;5.60;;
73599;SDS011;61877;48.246;9.220;2023-06-22T08:10:46;12.97;;;5.80;;
73599;SDS011;61877;48.246;9.220;2023-06-22T08:13:13;12.07;;;5.82;;
73599;SDS011;61877;48.246;9.220;2023-06-22T08:15:38;11.53;;;5.50;;
73599;SDS011;61877;48.246;9.220;2023-06-22T08:18:03;13.57;;;5.90;;
73599;SDS011;61877;48.246;9.220;2023-06-22T08:20:30;11.50;;;5.73;;
73599;SDS011;61877;48.246;9.220;2023-06-22T08:22:56;13.48;;;5.55;;
73599;SDS011;61877;48.246;9.220;2023-06-22T08:25:21;15.38;;;5.95;;
73599;SDS011;61877;48.246;9.220;2023-06-22T08:27:50;13.57;;;6.60;;
73599;SDS011;61877;48.246;9.220;2023-06-22T08:30:18;12.85;;;6.10;;
73599;SDS011;61877;48.246;9.220;2023-06-22T08:32:43;12.63;;;5.87;;
73599;SDS011;61877;48.246;9.220;2023-06-22T08:35:09;14.93;;;6.00;;
73599;SDS011;61877;48.246;9.220;2023-06-22T08:37:35;13.40;;;5.83;;
73599;SDS011;61877;48.246;9.220;2023-06-22T08:40:01;13.68;;;5.90;;
73599;SDS011;61877;48.246;9.220;2023-06-22T09:03:59;12.73;;;6.50;;
73599;SDS011;61877;48.246;9.220;2023-06-22T09:06:25;14.43;;;5.83;;
73599;SDS011;61877;48.246;9.220;2023-06-22T09:08:54;12.68;;;5.82;;
73599;SDS011;61877;48.246;9.220;2023-06-22T09:11:27;12.93;;;5.93;;
73599;SDS011;61877;48.246;9.220;2023-06-22T09:13:58;13.35;;;6.15;;
73599;SDS011;61877;48.246;9.220;2023-06-22T09:16:42;13.20;;;6.07;;
73599;SDS011;61877;48.246;9.220;2023-06-22T09:25:18;15.52;;;5.75;;
73599;SDS011;61877;48.246;9.220;2023-06-22T09:27:47;13.80;;;6.10;;
73599;SDS011;61877;48.246;9.220;2023-06-22T09:30:30;15.15;;;6.50;;
73599;SDS011;61877;48.246;9.220;2023-06-22T09:32:56;13.63;;;5.70;;
73599;SDS011;61877;48.246;9.220;2023-06-22T09:38:31;13.02;;;6.32;;
73599;SDS011;61877;48.246;9.220;2023-06-22T09:59:27;11.50;;;5.97;;
73599;SDS011;61877;48.246;9.220;2023-06-22T10:01:53;12.67;;;5.90;;
73599;SDS011;61877;48.246;9.220;2023-06-22T10:04:18;13.30;;;5.83;;
73599;SDS011;61877;48.246;9.220;2023-06-22T10:06:44;13.55;;;6.07;;
73599;SDS011;61877;48.246;9.220;2023-06-22T10:09:10;14.87;;;6.40;;
73599;SDS011;61877;48.246;9.220;2023-06-22T10:11:36;14.18;;;6.35;;
73599;SDS011;61877;48.246;9.220;2023-06-22T10:22:58;13.60;;;6.50;;
73599;SDS011;61877;48.246;9.220;2023-06-22T10:25:24;13.63;;;6.00;;
73599;SDS011;61877;48.246;9.220;2023-06-22T10:27:52;14.20;;;6.25;;
73599;SDS011;61877;48.246;9.220;2023-06-22T10:30:18;12.07;;;6.20;;
73599;SDS011;61877;48.246;9.220;2023-06-22T10:32:48;12.38;;;6.25;;
73599;SDS011;61877;48.246;9.220;2023-06-22T10:35:27;12.38;;;5.80;;
73599;SDS011;61877;48.246;9.220;2023-06-22T10:44:12;13.43;;;6.33;;
73599;SDS011;61877;48.246;9.220;2023-06-22T10:46:37;12.93;;;6.00;;
73599;SDS011;61877;48.246;9.220;2023-06-22T10:49:08;13.13;;;6.28;;
73599;SDS011;61877;48.246;9.220;2023-06-22T10:51:34;12.70;;;6.47;;
73599;SDS011;61877;48.246;9.220;2023-06-22T10:54:00;12.83;;;6.30;;
73599;SDS011;61877;48.246;9.220;2023-06-22T10:56:27;12.73;;;6.03;;
73599;SDS011;61877;48.246;9.220;2023-06-22T10:58:53;13.98;;;6.03;;
73599;SDS011;61877;48.246;9.220;2023-06-22T11:01:20;13.68;;;6.20;;
73599;SDS011;61877;48.246;9.220;2023-06-22T11:03:46;16.23;;;6.47;;
73599;SDS011;61877;48.246;9.220;2023-06-22T11:06:12;15.53;;;6.50;;
73599;SDS011;61877;48.246;9.220;2023-06-22T11:08:37;14.37;;;6.10;;
73599;SDS011;61877;48.246;9.220;2023-06-22T11:11:03;14.47;;;6.27;;
73599;SDS011;61877;48.246;9.220;2023-06-22T11:16:12;16.38;;;6.25;;
73599;SDS011;61877;48.246;9.220;2023-06-22T11:18:50;12.68;;;5.60;;
73599;SDS011;61877;48.246;9.220;2023-06-22T11:21:16;14.00;;;6.10;;
73599;SDS011;61877;48.246;9.220;2023-06-22T11:23:42;14.18;;;6.20;;
73599;SDS011;61877;48.246;9.220;2023-06-22T11:26:08;12.65;;;6.30;;
73599;SDS011;61877;48.246;9.220;2023-06-22T11:28:34;15.23;;;6.00;;
73599;SDS011;61877;48.246;9.220;2023-06-22T11:30:59;11.85;;;5.88;;
73599;SDS011;61877;48.246;9.220;2023-06-22T11:33:27;14.20;;;6.00;;
73599;SDS011;61877;48.246;9.220;2023-06-22T11:35:52;15.98;;;5.82;;
73599;SDS011;61877;48.246;9.220;2023-06-22T11:38:18;14.75;;;6.10;;
73599;SDS011;61877;48.246;9.220;2023-06-22T11:40:44;19.25;;;5.90;;
73599;SDS011;61877;48.246;9.220;2023-06-22T11:43:10;13.27;;;6.27;;
73599;SDS011;61877;48.246;9.220;2023-06-22T11:45:38;13.75;;;6.28;;
73599;SDS011;61877;48.246;9.220;2023-06-22T11:48:04;14.88;;;6.00;;
73599;SDS011;61877;48.246;9.220;2023-06-22T11:50:32;13.17;;;5.63;;
73599;SDS011;61877;48.246;9.220;2023-06-22T11:52:58;14.15;;;6.15;;
73599;SDS011;61877;48.246;9.220;2023-06-22T11:55:23;13.45;;;6.10;;
73599;SDS011;61877;48.246;9.220;2023-06-22T11:57:53;15.53;;;5.87;;
73599;SDS011;61877;48.246;9.220;2023-06-22T12:00:19;13.32;;;5.78;;
73599;SDS011;61877;48.246;9.220;2023-06-22T12:02:45;15.50;;;6.20;;
73599;SDS011;61877;48.246;9.220;2023-06-22T12:08:35;13.77;;;6.13;;
73599;SDS011;61877;48.246;9.220;2023-06-22T12:11:08;15.27;;;6.23;;
73599;SDS011;61877;48.246;9.220;2023-06-22T12:13:37;15.20;;;5.88;;
73599;SDS011;61877;48.246;9.220;2023-06-22T12:16:14;15.75;;;6.05;;
73599;SDS011;61877;48.246;9.220;2023-06-22T12:18:46;15.45;;;6.30;;
73599;SDS011;61877;48.246;9.220;2023-06-22T12:21:20;13.43;;;6.40;;
73599;SDS011;61877;48.246;9.220;2023-06-22T12:26:42;14.63;;;6.75;;
73599;SDS011;61877;48.246;9.220;2023-06-22T12:29:07;17.38;;;7.13;;
73599;SDS011;61877;48.246;9.220;2023-06-22T12:31:34;17.07;;;7.03;;
73599;SDS011;61877;48.246;9.220;2023-06-22T12:34:07;17.00;;;7.15;;
73599;SDS011;61877;48.246;9.220;2023-06-22T12:36:38;14.80;;;7.03;;
73599;SDS011;61877;48.246;9.220;2023-06-22T12:39:03;14.47;;;6.83;;
73599;SDS011;61877;48.246;9.220;2023-06-22T12:41:31;15.07;;;6.88;;
73599;SDS011;61877;48.246;9.220;2023-06-22T12:43:57;13.18;;;7.18;;
73599;SDS011;61877;48.246;9.220;2023-06-22T12:46:22;15.70;;;7.10;;
73599;SDS011;61877;48.246;9.220;2023-06-22T12:48:51;17.58;;;7.05;;
73599;SDS011;61877;48.246;9.220;2023-06-22T12:51:20;12.67;;;6.47;;
73599;SDS011;61877;48.246;9.220;2023-06-22T12:53:46;14.20;;;6.80;;
73599;SDS011;61877;48.246;9.220;2023-06-22T12:56:36;15.60;;;7.20;;
73599;SDS011;61877;48.246;9.220;2023-06-22T13:02:03;15.23;;;7.13;;
73599;SDS011;61877;48.246;9.220;2023-06-22T13:05:02;15.45;;;7.20;;
73599;SDS011;61877;48.246;9.220;2023-06-22T13:08:01;14.93;;;7.40;;
73599;SDS011;61877;48.246;9.220;2023-06-22T13:10:27;14.60;;;7.45;;
73599;SDS011;61877;48.246;9.220;2023-06-22T13:19:09;14.07;;;6.82;;
73599;SDS011;61877;48.246;9.220;2023-06-22T13:21:37;16.50;;;7.13;;
73599;SDS011;61877;48.246;9.220;2023-06-22T13:30:07;16.17;;;7.43;;
73599;SDS011;61877;48.246;9.220;2023-06-22T13:32:33;14.00;;;6.75;;
73599;SDS011;61877;48.246;9.220;2023-06-22T13:34:59;15.77;;;7.07;;
73599;SDS011;61877;48.246;9.220;2023-06-22T13:37:25;14.50;;;6.57;;
73599;SDS011;61877;48.246;9.220;2023-06-22T13:39:51;15.80;;;6.70;;
73599;SDS011;61877;48.246;9.220;2023-06-22T13:42:17;14.07;;;7.00;;
73599;SDS011;61877;48.246;9.220;2023-06-22T13:44:43;15.43;;;6.93;;
73599;SDS011;61877;48.246;9.220;2023-06-22T13:47:08;14.43;;;6.70;;
73599;SDS011;61877;48.246;9.220;2023-06-22T13:49:34;12.83;;;6.43;;
73599;SDS011;61877;48.246;9.220;2023-06-22T13:52:01;13.80;;;6.53;;
73599;SDS011;61877;48.246;9.220;2023-06-22T13:54:26;15.25;;;7.15;;
73599;SDS011;61877;48.246;9.220;2023-06-22T13:56:52;15.10;;;6.37;;
73599;SDS011;61877;48.246;9.220;2023-06-22T13:59:17;15.20;;;5.70;;
73599;SDS011;61877;48.246;9.220;2023-06-22T14:01:43;12.90;;;4.70;;
73599;SDS011;61877;48.246;9.220;2023-06-22T14:04:08;16.90;;;5.27;;
73599;SDS011;61877;48.246;9.220;2023-06-22T14:06:34;15.25;;;5.00;;
73599;SDS011;61877;48.246;9.220;2023-06-22T14:09:04;16.20;;;4.73;;
73599;SDS011;61877;48.246;9.220;2023-06-22T14:11:30;13.80;;;4.40;;
73599;SDS011;61877;48.246;9.220;2023-06-22T14:13:55;14.07;;;4.53;;
73599;SDS011;61877;48.246;9.220;2023-06-22T14:16:21;13.88;;;3.85;;
73599;SDS011;61877;48.246;9.220;2023-06-22T14:18:46;12.40;;;4.00;;
73599;SDS011;61877;48.246;9.220;2023-06-22T14:21:12;12.20;;;3.67;;
73599;SDS011;61877;48.246;9.220;2023-06-22T14:23:38;10.40;;;3.27;;
73599;SDS011;61877;48.246;9.220;2023-06-22T14:26:07;11.25;;;3.42;;
73599;SDS011;61877;48.246;9.220;2023-06-22T14:28:33;11.55;;;3.55;;
73599;SDS011;61877;48.246;9.220;2023-06-22T14:31:01;12.20;;;3.33;;
73599;SDS011;61877;48.246;9.220;2023-06-22T14:33:27;11.38;;;3.75;;
73599;SDS011;61877;48.246;9.220;2023-06-22T14:35:52;12.13;;;3.43;;
73599;SDS011;61877;48.246;9.220;2023-06-22T14:38:18;10.95;;;3.60;;
73599;SDS011;61877;48.246;9.220;2023-06-22T14:40:43;12.20;;;3.97;;
73599;SDS011;61877;48.246;9.220;2023-06-22T14:43:11;11.10;;;3.75;;
73599;SDS011;61877;48.246;9.220;2023-06-22T14:45:36;11.13;;;3.70;;
73599;SDS011;61877;48.246;9.220;2023-06-22T14:48:02;12.40;;;3.72;;
73599;SDS011;61877;48.246;9.220;2023-06-22T14:50:27;11.33;;;3.93;;
73599;SDS011;61877;48.246;9.220;2023-06-22T14:52:53;14.33;;;4.17;;
73599;SDS011;61877;48.246;9.220;2023-06-22T14:55:19;13.30;;;4.60;;
73599;SDS011;61877;48.246;9.220;2023-06-22T14:57:47;14.02;;;4.18;;
73599;SDS011;61877;48.246;9.220;2023-06-22T15:00:14;10.93;;;4.40;;
73599;SDS011;61877;48.246;9.220;2023-06-22T15:02:40;10.57;;;4.18;;
73599;SDS011;61877;48.246;9.220;2023-06-22T15:14:46;11.25;;;3.92;;
73599;SDS011;61877;48.246;9.220;2023-06-22T15:26:12;13.48;;;3.90;;
73599;SDS011;61877;48.246;9.220;2023-06-22T15:28:44;14.50;;;3.67;;
73599;SDS011;61877;48.246;9.220;2023-06-22T15:31:14;12.90;;;3.67;;
73599;SDS011;61877;48.246;9.220;2023-06-22T15:36:58;14.77;;;4.07;;
73599;SDS011;61877;48.246;9.220;2023-06-22T15:42:31;12.88;;;3.72;;
73599;SDS011;61877;48.246;9.220;2023-06-22T15:44:57;12.13;;;3.60;;
73599;SDS011;61877;48.246;9.220;2023-06-22T15:47:22;12.48;;;3.65;;
73599;SDS011;61877;48.246;9.220;2023-06-22T15:49:48;14.33;;;3.97;;
73599;SDS011;61877;48.246;9.220;2023-06-22T15:52:17;12.70;;;3.95;;
73599;SDS011;61877;48.246;9.220;2023-06-22T15:54:42;12.88;;;3.90;;
73599;SDS011;61877;48.246;9.220;2023-06-22T15:57:08;13.40;;;4.03;;
73599;SDS011;61877;48.246;9.220;2023-06-22T16:27:08;12.57;;;3.85;;
73599;SDS011;61877;48.246;9.220;2023-06-22T16:29:34;14.27;;;4.00;;
73599;SDS011;61877;48.246;9.220;2023-06-22T16:31:59;13.40;;;3.73;;
73599;SDS011;61877;48.246;9.220;2023-06-22T16:34:34;11.85;;;3.63;;
73599;SDS011;61877;48.246;9.220;2023-06-22T16:39:52;12.60;;;3.80;;
73599;SDS011;61877;48.246;9.220;2023-06-22T16:42:23;14.30;;;3.80;;
73599;SDS011;61877;48.246;9.220;2023-06-22T16:44:53;10.15;;;3.75;;
73599;SDS011;61877;48.246;9.220;2023-06-22T16:47:38;12.32;;;3.75;;
73599;SDS011;61877;48.246;9.220;2023-06-22T16:50:46;12.82;;;4.45;;
73599;SDS011;61877;48.246;9.220;2023-06-22T16:53:20;12.23;;;3.70;;
73599;SDS011;61877;48.246;9.220;2023-06-22T16:59:08;11.85;;;3.90;;
73599;SDS011;61877;48.246;9.220;2023-06-22T17:01:35;13.02;;;3.67;;
73599;SDS011;61877;48.246;9.220;2023-06-22T17:04:06;13.50;;;4.10;;
73599;SDS011;61877;48.246;9.220;2023-06-22T17:06:33;13.40;;;3.87;;
73599;SDS011;61877;48.246;9.220;2023-06-22T17:09:02;13.10;;;3.80;;
73599;SDS011;61877;48.246;9.220;2023-06-22T17:11:37;12.35;;;3.80;;
73599;SDS011;61877;48.246;9.220;2023-06-22T17:14:13;10.90;;;3.70;;
73599;SDS011;61877;48.246;9.220;2023-06-22T17:16:48;10.60;;;3.65;;
73599;SDS011;61877;48.246;9.220;2023-06-22T17:19:19;12.87;;;4.17;;
73599;SDS011;61877;48.246;9.220;2023-06-22T17:21:46;12.77;;;3.70;;
73599;SDS011;61877;48.246;9.220;2023-06-22T17:24:12;12.50;;;4.25;;
73599;SDS011;61877;48.246;9.220;2023-06-22T17:26:40;10.82;;;3.72;;
73599;SDS011;61877;48.246;9.220;2023-06-22T17:29:07;13.57;;;3.70;;
73599;SDS011;61877;48.246;9.220;2023-06-22T17:31:38;11.50;;;3.60;;
73599;SDS011;61877;48.246;9.220;2023-06-22T17:34:08;13.15;;;3.58;;
73599;SDS011;61877;48.246;9.220;2023-06-22T17:36:39;13.20;;;3.90;;
73599;SDS011;61877;48.246;9.220;2023-06-22T17:39:05;12.13;;;3.67;;
73599;SDS011;61877;48.246;9.220;2023-06-22T17:41:31;13.43;;;3.70;;
73599;SDS011;61877;48.246;9.220;2023-06-22T17:43:57;9.73;;;3.22;;